Werte bis 5 Uhr SommerzeitDiagramme Harleshausen: Tagesdaten MonatsdatenCSV-Datei: Harleshausen18.csv

Wetterdaten 2018 Station: Harleshausen
Temperaturen in °C relative Nieder- Global- Wind Wind Wind- Sonnen-
Datum Boden Boden Luft Luft Luft Luft Feuchte schlag strahlung max richtung schein
20 cm 5 cm 20 cm 2 m 2 m max 2 m min % mm W/m2*d m/s m/s ° h

21.10.2018 12,1 11,0 8,2 7,5 16,6 1,9 80 0,0 1720 0,2 1,4 --- ---
20.10.2018 12,9 12,1 8,6 8,2 15,2 2,9 78 0,0 1608 0,2 1,3 --- ---
19.10.2018 13,3 13,1 12,2 11,9 17,4 8,9 78 0,0 992 0,1 0,9 --- ---
18.10.2018 13,3 12,9 11,7 11,7 16,2 6,8 85 0,0 972 0,2 1,1 --- ---
17.10.2018 13,3 13,1 12,9 12,6 23,1 7,6 84 0,1 1583 0,2 0,9 --- ---
16.10.2018 13,3 12,9 10,7 10,8 18,9 5,5 88 0,0 935 0,1 0,8 --- ---
15.10.2018 13,5 13,3 13,8 13,7 25,6 6,1 73 0,0 1965 0,3 1,5 --- ---
14.10.2018 13,7 13,5 14,3 14,4 24,4 5,9 71 0,0 2068 0,5 2,1 --- ---
13.10.2018 13,7 13,9 16,2 16,2 26,9 8,9 72 0,0 2106 0,4 2,0 --- ---
12.10.2018 13,5 13,6 15,7 15,9 25,0 8,6 72 0,0 2125 0,5 2,5 --- ---
11.10.2018 13,2 13,2 14,5 14,1 23,9 7,1 75 0,0 2197 0,4 2,2 --- ---
10.10.2018 13,0 13,1 14,6 13,8 24,3 7,8 80 0,1 2179 0,3 1,3 --- ---
09.10.2018 12,5 12,2 11,8 11,2 21,3 4,2 84 0,0 2046 0,3 1,5 --- ---
08.10.2018 12,5 11,7 10,2 9,1 18,4 1,7 80 0,0 2214 0,2 1,1 --- ---
07.10.2018 13,2 8,0 11,0 10,7 15,1 4,6 79 0,0 1236 0,4 1,5 --- ---
06.10.2018 12,7 12,4 14,0 13,7 23,5 4,2 73 0,0 2313 0,6 2,8 --- ---
05.10.2018 12,5 12,7 11,9 10,9 21,3 3,9 80 0,0 2466 0,4 2,2 --- ---
04.10.2018 12,5 10,1 9,0 8,9 14,9 4,6 84 0,0 1027 0,4 1,7 --- ---
03.10.2018 12,5 11,7 11,6 11,3 16,6 6,0 64 0,0 2024 0,9 3,4 --- ---
02.10.2018 12,3 11,0 6,5 6,8 11,8 2,5 91 3,1 810 1,2 3,3 --- ---
01.10.2018 12,9 12,0 8,3 7,6 14,8 3,4 82 2,0 1812 0,5 3,5 --- ---
30.09.2018 12,8 11,8 10,2 9,0 19,1 -0,3 64 0,0 2956 0,4 1,8 --- ---
29.09.2018 13,3 12,3 9,3 7,7 16,8 0,2 71 0,0 2930 0,2 1,4 --- ---
28.09.2018 14,0 13,1 8,9 8,8 14,9 3,8 77 0,0 1029 0,2 1,1 --- ---
27.09.2018 14,0 13,5 14,3 13,3 23,4 5,0 59 0,0 3020 0,6 2,2 --- ---
26.09.2018 14,0 13,0 10,1 9,1 17,4 2,1 67 0,0 2418 0,6 2,2 --- ---
25.09.2018 14,5 13,4 9,2 7,6 16,0 1,6 78 0,0 2732 0,3 1,3 --- ---
24.09.2018 15,3 14,1 9,6 9,1 15,1 4,0 75 1,2 2302 0,9 3,4 --- ---
23.09.2018 16,5 15,4 10,2 9,8 12,0 7,4 95 18,7 351 0,6 1,8 --- ---
22.09.2018 17,1 16,4 13,0 12,4 18,1 8,9 68 0,4 2027 1,1 3,3 --- ---
21.09.2018 18,1 17,8 16,0 16,7 23,7 10,2 67 3,5 1058 1,3 4,1 --- ---
20.09.2018 18,1 18,5 20,0 19,5 27,7 11,5 62 0,0 2940 0,6 2,8 --- ---
19.09.2018 17,8 18,3 21,3 20,8 28,7 12,2 60 0,0 3106 0,7 3,5 --- ---
18.09.2018 17,0 17,2 20,7 19,8 30,9 7,0 56 0,0 3352 0,8 3,0 --- ---
17.09.2018 16,9 16,7 17,0 16,0 27,0 6,0 63 0,0 3145 0,4 2,3 --- ---
16.09.2018 17,0 16,6 15,5 14,1 23,8 5,8 69 0,0 3069 0,4 2,1 --- ---
15.09.2018 17,4 17,0 14,6 14,0 20,6 7,9 70 0,0 1943 0,4 2,2 --- ---
14.09.2018 18,0 17,9 16,2 14,5 21,0 10,2 71 0,0 2606 0,2 1,1 --- ---
13.09.2018 18,3 18,1 15,1 14,3 15,6 13,0 88 0,3 638 0,2 0,8 --- ---
12.09.2018 18,2 18,5 20,5 19,3 29,1 12,9 64 0,0 3185 0,7 2,5 --- ---
11.09.2018 18,1 18,3 20,0 18,9 27,5 12,6 61 0,0 3601 0,9 3,2 --- ---
10.09.2018 17,9 17,8 17,1 16,4 25,2 9,0 66 0,0 2348 0,5 2,1 --- ---
09.09.2018 18,0 17,3 17,7 16,6 25,7 10,6 62 0,0 2577 0,4 1,6 --- ---
08.09.2018 18,1 17,2 15,5 14,1 21,4 6,6 63 0,0 3490 0,7 2,3 --- ---
07.09.2018 19,1 18,9 16,5 15,8 21,6 9,6 72 0,0 2279 0,7 3,0 --- ---
06.09.2018 19,3 19,3 18,2 17,2 26,8 12,8 78 10,1 1735 0,2 1,6 --- ---
05.09.2018 19,4 19,8 21,5 19,7 29,3 11,1 64 0,0 3757 0,3 1,5 --- ---
04.09.2018 19,2 19,9 21,1 19,6 29,5 13,1 73 0,0 3246 0,3 1,5 --- ---
03.09.2018 18,6 18,1 17,3 16,9 20,0 14,7 89 2,7 919 0,1 0,9 --- ---
02.09.2018 18,4 18,0 16,5 15,6 22,1 9,9 70 0,0 1792 0,4 1,5 --- ---
01.09.2018 18,6 18,0 16,6 14,5 22,8 6,1 63 0,0 3932 0,3 2,1 --- ---
31.08.2018 19,3 18,8 16,3 14,3 20,7 9,2 68 0,0 3247 0,3 1,5 --- ---
30.08.2018 20,0 20,0 17,3 16,4 21,6 11,0 77 4,5 2453 0,7 2,7 --- ---
29.08.2018 19,4 19,7 21,5 19,6 30,3 9,0 63 0,6 3787 0,6 3,0 --- ---
28.08.2018 19,2 19,3 19,6 17,8 25,2 10,6 59 0,0 3367 0,4 1,5 --- ---
27.08.2018 19,0 18,6 17,0 16,5 20,1 11,2 62 0,2 2303 1,3 3,8 --- ---
26.08.2018 19,3 18,4 15,1 13,7 21,2 5,9 59 0,0 2905 0,6 2,4 --- ---
25.08.2018 20,6 19,6 14,2 13,5 18,9 9,3 64 2,0 2162 1,0 3,3 --- ---
24.08.2018 21,9 21,8 18,7 17,9 22,4 12,2 64 2,0 2460 0,6 3,1 --- ---
23.08.2018 22,0 22,7 24,8 22,9 32,7 14,6 62 0,0 3680 0,4 2,6 --- ---
22.08.2018 21,8 22,5 24,7 23,0 31,8 15,6 60 0,0 3727 0,3 2,0 --- ---
21.08.2018 21,6 22,2 22,6 20,8 28,4 15,0 69 0,0 3010 0,3 1,4 --- ---
20.08.2018 21,5 21,5 20,7 20,0 24,1 15,4 71 0,0 1385 0,3 1,7 --- ---
19.08.2018 21,6 21,9 23,4 21,2 30,7 11,4 56 0,0 4354 0,5 2,3 --- ---
18.08.2018 21,7 22,3 23,7 21,3 29,0 15,5 55 0,0 4121 0,3 1,3 --- ---
17.08.2018 21,5 22,2 23,7 21,2 29,1 16,2 63 0,0 4063 0,5 1,8 --- ---
16.08.2018 21,0 21,4 23,2 20,8 30,4 10,8 61 0,0 4591 0,6 2,6 --- ---
15.08.2018 20,9 20,9 19,6 18,5 24,4 13,6 68 0,0 1914 0,3 1,6 --- ---
14.08.2018 21,0 20,7 18,1 17,6 23,4 14,0 75 0,1 1820 0,7 2,4 --- ---
13.08.2018 21,5 20,8 16,5 15,8 23,2 10,3 84 12,8 1877 0,6 2,9 --- ---
12.08.2018 21,7 21,6 20,9 18,3 28,1 7,5 55 0,0 4809 0,6 2,1 --- ---
11.08.2018 22,5 21,9 19,0 17,1 24,3 10,8 57 0,0 3974 0,7 3,3 --- ---
10.08.2018 23,7 23,4 20,3 18,8 25,2 11,8 55 0,0 3741 1,0 3,1 --- ---
09.08.2018 24,7 25,2 23,9 22,5 34,9 16,5 74 4,4 3023 0,8 4,7 --- ---
08.08.2018 24,8 25,8 26,7 24,9 31,4 18,3 60 0,0 4144 0,8 3,4 --- ---
07.08.2018 24,5 25,5 28,3 26,1 37,1 15,3 51 0,0 4346 0,8 2,7 --- ---
06.08.2018 24,3 25,0 26,0 23,1 34,1 11,2 52 0,0 5150 0,4 2,4 --- ---
05.08.2018 24,9 25,7 25,2 22,1 28,3 15,8 62 0,0 4523 0,5 1,6 --- ---
04.08.2018 25,1 26,4 28,8 25,8 33,3 18,4 56 0,0 4432 0,3 1,5 --- ---
03.08.2018 24,8 26,3 30,1 26,9 35,8 17,4 54 0,0 5056 0,3 1,6 --- ---
02.08.2018 24,6 26,0 29,4 26,2 34,6 17,8 58 0,0 4722 0,4 1,3 --- ---
01.08.2018 24,3 25,5 27,7 25,2 32,1 19,6 57 0,0 3937 0,4 1,1 --- ---
31.07.2018 24,1 25,3 28,9 26,7 36,5 16,3 52 0,0 4032 0,5 2,1 --- ---
30.07.2018 23,7 25,0 28,6 25,7 36,3 15,0 51 0,0 5153 0,5 2,3 --- ---
29.07.2018 23,6 24,3 24,9 23,1 30,7 14,8 60 0,0 3536 0,6 2,9 --- ---
28.07.2018 23,9 24,6 25,6 24,1 31,4 17,6 62 0,1 2867 0,7 4,0 --- ---
27.07.2018 23,9 25,3 29,8 27,0 35,7 17,5 47 0,0 4821 0,4 1,7 --- ---
26.07.2018 23,7 25,2 29,4 26,6 35,1 16,7 50 0,0 5025 0,4 1,8 --- ---
25.07.2018 23,3 24,9 29,2 26,4 36,7 16,7 52 0,0 4592 0,3 1,4 --- ---
24.07.2018 22,6 24,1 28,3 25,2 35,4 13,8 51 0,0 5354 0,3 1,5 --- ---
23.07.2018 22,4 23,6 25,8 22,4 31,4 13,9 58 0,0 5383 0,3 2,0 --- ---
22.07.2018 22,2 23,1 23,1 21,3 29,1 17,0 73 0,5 3270 0,6 1,9 --- ---
21.07.2018 22,1 22,8 24,2 22,7 28,3 18,0 53 0,0 2858 0,5 2,0 --- ---
20.07.2018 22,0 23,0 25,2 22,7 31,8 12,6 49 0,0 4736 0,4 2,1 --- ---
19.07.2018 21,9 22,9 24,0 20,6 28,7 10,6 51 0,0 5602 0,3 1,4 --- ---
18.07.2018 22,0 23,2 24,5 21,2 27,2 16,0 55 0,0 5651 0,5 2,3 --- ---
17.07.2018 21,7 23,0 26,0 23,3 31,9 13,7 52 0,0 5050 0,5 2,7 --- ---
16.07.2018 21,3 22,5 25,7 22,7 31,3 14,0 49 0,0 5326 0,4 1,7 --- ---
15.07.2018 21,0 22,2 24,0 20,5 29,1 11,8 55 0,0 5751 0,4 1,4 --- ---
14.07.2018 20,9 21,8 22,8 20,1 28,5 11,8 62 0,0 4291 0,3 1,4 --- ---
13.07.2018 20,8 22,0 23,6 20,4 27,5 13,0 59 0,0 5573 0,4 2,0 --- ---
12.07.2018 20,0 20,0 20,5 18,3 26,0 11,2 72 0,0 4138 0,4 1,9 --- ---
11.07.2018 19,9 19,9 16,5 14,9 19,4 12,3 85 2,9 2221 0,3 2,4 --- ---
10.07.2018 20,6 20,3 15,5 14,2 17,5 12,8 83 7,6 1577 0,6 1,9 --- ---
09.07.2018 21,1 21,6 20,3 18,2 25,3 12,3 66 0,0 3714 0,4 1,4 --- ---
08.07.2018 21,1 22,1 22,1 19,3 27,4 11,8 58 0,0 5476 0,4 1,5 --- ---
07.07.2018 20,8 21,7 21,8 18,7 27,2 8,5 52 0,0 5566 0,4 2,4 --- ---
06.07.2018 21,0 21,6 20,4 18,5 26,9 12,7 62 0,0 3584 0,4 2,5 --- ---
05.07.2018 21,2 22,2 23,6 21,9 28,9 14,6 64 0,0 3176 0,4 2,8 --- ---
04.07.2018 20,9 22,0 24,7 22,2 32,2 10,4 53 0,0 4527 0,5 2,3 --- ---
03.07.2018 20,6 21,7 23,7 20,4 31,3 7,6 48 0,0 5972 0,3 1,8 --- ---
02.07.2018 20,4 21,4 22,4 19,0 27,9 9,2 48 0,0 6101 0,4 1,4 --- ---
01.07.2018 20,4 21,3 21,4 18,1 26,5 9,5 48 0,0 6174 0,5 1,8 --- ---
30.06.2018 20,6 22,0 23,6 20,5 27,5 13,0 49 0,0 6225 0,6 1,7 --- ---
29.06.2018 20,1 21,8 26,6 23,5 31,4 16,6 47 0,0 5999 0,4 1,6 --- ---
28.06.2018 19,3 20,5 23,1 20,7 28,4 10,7 55 0,0 4963 0,4 1,3 --- ---
27.06.2018 18,8 19,9 21,0 18,5 27,4 11,2 62 0,0 5151 0,4 1,4 --- ---
26.06.2018 18,5 16,7 18,1 16,0 23,1 12,3 73 0,0 3327 0,3 1,1 --- ---
25.06.2018 18,3 17,8 17,6 16,0 19,9 11,8 72 0,3 2597 0,3 1,7 --- ---
24.06.2018 18,2 18,3 15,0 13,3 17,6 8,2 73 0,0 2524 0,4 2,3 --- ---
23.06.2018 18,6 18,0 14,7 13,4 19,2 10,0 67 0,0 2696 0,7 2,8 --- ---
22.06.2018 19,4 19,3 13,2 12,0 17,8 8,9 75 5,2 3733 1,0 3,5 --- ---
21.06.2018 20,3 20,9 18,8 16,9 24,1 9,3 63 0,5 4444 0,9 3,3 --- ---
20.06.2018 19,8 21,0 24,0 21,3 29,8 13,7 64 0,0 4934 0,5 2,3 --- ---
19.06.2018 19,7 20,1 19,3 18,7 22,2 14,3 71 0,0 1651 0,5 1,8 --- ---
18.06.2018 19,9 20,7 20,4 18,5 24,9 13,1 62 0,0 3808 1,0 2,6 --- ---
17.06.2018 20,0 20,9 20,9 18,5 24,8 14,0 63 0,6 3985 0,6 2,6 --- ---
16.06.2018 19,8 20,8 22,3 20,3 27,0 12,5 60 0,0 4542 0,7 2,5 --- ---
15.06.2018 19,4 20,1 19,5 17,8 24,9 13,9 73 1,6 3330 0,4 1,8 --- ---
14.06.2018 18,9 19,4 18,6 15,5 23,1 5,7 63 0,0 5690 0,7 2,8 --- ---
13.06.2018 19,5 19,3 15,3 14,0 16,7 10,2 68 0,0 1877 0,4 1,8 --- ---
12.06.2018 20,3 20,7 17,8 15,7 21,4 12,8 67 0,3 3141 0,4 1,0 --- ---
11.06.2018 20,8 21,5 19,9 18,2 25,0 14,9 71 0,0 2924 0,3 1,0 --- ---
10.06.2018 21,2 22,1 21,1 20,2 27,2 16,1 79 5,0 2351 0,3 1,1 --- ---
09.06.2018 21,1 22,7 26,2 23,8 31,8 16,6 61 0,0 4293 0,3 1,8 --- ---
08.06.2018 20,8 22,1 22,9 21,5 31,4 15,8 72 0,0 2989 0,3 2,0 --- ---
07.06.2018 20,6 21,9 23,8 21,5 31,8 14,9 67 1,3 4187 0,3 1,4 --- ---
06.06.2018 20,1 21,5 23,9 21,0 30,0 11,5 60 0,0 5433 0,5 1,5 --- ---
05.06.2018 20,0 20,9 20,7 18,4 25,3 14,0 73 0,0 3583 0,3 1,1 --- ---
04.06.2018 19,9 21,3 23,7 20,5 29,4 11,4 66 0,0 5362 0,3 1,5 --- ---
03.06.2018 19,8 20,4 20,8 18,9 26,4 13,4 73 0,0 3431 0,2 1,2 --- ---
02.06.2018 20,1 21,0 20,6 19,1 23,9 15,0 74 0,2 2305 0,5 1,8 --- ---
01.06.2018 20,4 21,8 22,8 20,8 26,1 17,2 70 0,0 3916 0,9 2,5 --- ---
31.05.2018 20,3 22,2 25,1 22,8 31,4 15,7 66 0,0 4570 0,3 1,5 --- ---
30.05.2018 19,9 21,9 24,1 21,9 29,7 15,6 70 0,1 4977 0,4 1,9 --- ---
29.05.2018 19,5 21,3 24,1 22,3 32,4 16,4 71 2,8 4098 0,5 2,3 --- ---
28.05.2018 18,7 20,8 24,7 22,9 32,2 13,6 63 0,0 5332 0,4 1,8 --- ---
27.05.2018 18,2 19,3 20,2 19,3 27,6 12,3 71 2,5 3222 0,3 1,1 --- ---
26.05.2018 17,9 19,6 23,0 21,2 29,9 13,6 58 0,0 4836 0,4 1,2 --- ---
25.05.2018 17,3 18,6 19,8 18,6 25,4 13,9 73 0,1 2882 0,3 1,3 --- ---
24.05.2018 17,4 18,0 17,0 16,7 18,3 14,5 76 1,9 1216 0,4 1,6 --- ---
23.05.2018 17,2 18,7 19,6 18,7 26,1 13,5 61 0,8 4052 0,5 1,6 --- ---
22.05.2018 16,8 17,9 18,6 17,1 27,6 9,7 69 1,1 3622 0,4 2,8 --- ---
21.05.2018 16,4 17,7 19,7 17,6 25,6 9,2 53 0,0 5723 0,7 2,0 --- ---
20.05.2018 15,9 17,0 18,5 16,5 25,4 7,2 56 0,0 5411 0,6 1,6 --- ---
19.05.2018 15,7 15,8 15,0 13,0 20,3 8,4 68 0,0 3687 0,3 1,4 --- ---
18.05.2018 16,1 15,7 12,2 10,8 15,7 8,5 75 0,0 2072 0,4 1,8 --- ---
17.05.2018 16,5 17,0 14,9 12,7 18,4 8,5 66 0,0 4828 0,7 2,2 --- ---
16.05.2018 16,6 17,3 15,5 14,1 19,2 10,4 83 1,4 2988 0,5 1,6 --- ---
15.05.2018 16,7 17,5 17,9 16,6 23,5 10,9 56 4,1 3502 0,6 2,2 --- ---
14.05.2018 16,7 18,5 20,4 19,0 27,0 11,7 55 0,0 5345 0,7 2,2 --- ---
13.05.2018 16,4 17,6 19,3 17,8 28,2 11,6 77 2,7 3713 0,6 1,8 --- ---
12.05.2018 16,0 17,3 19,5 17,6 26,1 10,4 65 0,0 4446 0,4 1,6 --- ---
11.05.2018 15,7 16,6 16,5 14,8 21,0 10,4 69 0,0 3270 0,4 1,5 --- ---
10.05.2018 15,9 16,6 15,9 14,8 23,3 10,1 77 2,7 2485 0,4 2,1 --- ---
09.05.2018 15,6 17,1 21,0 19,2 27,7 9,9 60 0,0 4746 0,4 1,4 --- ---
08.05.2018 15,0 16,5 20,4 18,4 26,5 8,7 56 0,0 5374 0,5 1,8 --- ---
07.05.2018 14,5 15,7 18,2 16,5 26,1 7,2 59 0,0 4823 0,5 1,6 --- ---
06.05.2018 13,9 15,1 17,9 15,7 24,7 5,8 56 0,0 5274 0,6 1,6 --- ---
05.05.2018 13,5 14,4 16,1 13,9 22,4 4,6 55 0,0 5279 0,6 1,8 --- ---
04.05.2018 13,1 13,9 14,9 12,7 21,0 4,6 56 0,0 5116 0,5 1,5 --- ---
03.05.2018 12,9 13,6 13,7 12,0 19,2 5,6 62 0,0 3720 0,3 2,2 --- ---
02.05.2018 12,7 12,9 11,5 9,8 17,8 0,4 63 0,0 3423 0,3 1,3 --- ---
01.05.2018 13,2 13,5 11,7 10,0 15,7 4,5 54 0,0 4502 1,8 4,7 --- ---
30.04.2018 13,7 14,4 15,3 14,9 17,7 11,0 61 0,0 3007 1,8 5,4 --- ---
29.04.2018 13,1 14,3 17,7 16,0 24,7 6,0 63 0,0 3574 0,4 1,7 --- ---
28.04.2018 12,7 13,3 14,1 12,9 19,7 5,7 60 0,0 3683 0,9 3,1 --- ---
27.04.2018 12,6 13,0 12,4 10,4 18,5 2,1 64 0,0 4165 0,6 2,2 --- ---
26.04.2018 13,0 13,0 9,4 8,9 14,8 4,8 72 3,3 3099 1,0 3,6 --- ---
25.04.2018 13,5 14,1 13,5 12,7 17,8 6,3 70 0,5 3249 1,1 4,2 --- ---
24.04.2018 13,8 14,2 13,1 12,1 18,6 6,1 71 0,0 2565 0,7 2,8 --- ---
23.04.2018 14,1 15,2 16,3 15,7 21,4 10,2 70 0,3 3225 0,5 2,4 --- ---
22.04.2018 13,8 15,0 17,5 16,5 27,3 8,3 69 0,3 3611 0,7 2,9 --- ---
21.04.2018 13,5 15,0 18,8 17,0 25,0 9,7 66 0,0 4366 0,5 2,1 --- ---
20.04.2018 13,0 14,5 18,9 18,4 28,3 8,1 59 0,0 4445 0,6 2,2 --- ---
19.04.2018 12,5 14,0 18,7 17,9 28,3 7,6 54 0,0 4501 0,5 1,8 --- ---
18.04.2018 11,9 13,2 17,4 16,1 26,8 5,8 62 0,0 4458 0,3 1,6 --- ---
17.04.2018 11,6 12,6 15,1 13,7 22,3 5,0 65 0,0 4362 0,4 2,3 --- ---
16.04.2018 11,4 12,3 15,0 14,4 19,6 10,2 72 0,7 2761 0,5 2,4 --- ---
15.04.2018 10,8 11,9 14,8 14,0 21,1 9,5 74 0,6 3072 0,5 2,2 --- ---
14.04.2018 10,4 11,3 13,0 13,0 19,2 8,9 75 0,1 2831 1,0 2,7 --- ---
13.04.2018 10,6 11,2 11,2 11,9 14,8 9,6 84 29,7 421 0,7 3,2 --- ---
12.04.2018 10,1 11,3 15,4 14,8 21,2 10,2 69 0,0 3477 1,2 3,3 --- ---
11.04.2018 10,0 10,7 12,0 12,5 17,8 6,8 73 0,0 1915 0,7 2,4 --- ---
10.04.2018 9,4 10,9 16,7 15,8 23,2 7,4 60 0,0 3940 0,9 3,6 --- ---
09.04.2018 8,7 9,8 14,3 14,7 23,6 5,6 60 0,0 2616 0,5 2,2 --- ---
08.04.2018 7,9 9,0 14,3 14,2 25,5 3,5 56 0,0 3972 0,5 2,1 --- ---
07.04.2018 7,2 7,8 11,6 11,6 23,3 1,5 50 0,0 4286 0,8 2,9 --- ---
06.04.2018 7,2 7,3 7,7 6,1 14,9 -3,0 62 0,0 4257 0,8 3,3 --- ---
05.04.2018 7,6 8,2 8,4 8,0 13,9 0,4 73 0,4 2495 1,6 4,5 --- ---
04.04.2018 7,1 8,1 12,1 12,6 18,7 6,7 63 0,0 2778 1,5 4,2 --- ---
03.04.2018 6,4 7,4 12,4 12,5 18,7 7,8 59 0,1 2977 1,6 4,1 --- ---
02.04.2018 5,7 5,9 7,3 6,8 13,3 0,1 69 0,1 2738 1,0 3,2 --- ---
01.04.2018 5,8 5,9 4,6 3,9 8,8 1,8 85 3,6 1489 0,8 2,7 --- ---
31.03.2018 5,6 6,0 6,9 6,7 10,2 3,7 81 0,0 1412 1,1 3,7 --- ---
30.03.2018 5,2 5,4 6,5 5,6 12,4 -2,0 70 0,0 3022 0,6 3,4 --- ---
29.03.2018 5,2 5,5 4,9 4,6 9,7 -0,6 73 0,6 2372 1,3 4,4 --- ---
28.03.2018 5,0 5,4 6,6 6,8 10,3 4,6 90 4,2 774 1,0 4,8 --- ---
27.03.2018 4,4 4,7 5,4 4,7 10,7 -0,3 77 3,3 2271 0,7 2,7 --- ---
26.03.2018 4,1 4,3 5,1 4,6 11,2 -0,5 72 0,0 2048 0,6 3,4 --- ---
25.03.2018 3,8 3,9 5,3 4,6 12,4 -2,8 70 0,0 2625 0,5 2,3 --- ---
24.03.2018 3,5 3,9 5,7 5,7 10,6 0,8 71 0,0 1725 0,5 2,2 --- ---
23.03.2018 2,7 2,6 4,5 4,5 7,6 1,6 89 0,3 956 0,6 2,0 --- ---
22.03.2018 2,2 1,7 1,5 1,7 5,4 -0,4 89 0,9 648 1,0 2,8 --- ---
21.03.2018 1,8 1,2 1,5 0,1 7,0 -7,2 67 0,0 3064 0,6 2,9 --- ---
20.03.2018 1,9 0,8 -2,0 -1,4 5,0 -7,4 66 0,3 1053 1,1 5,7 --- ---
19.03.2018 2,2 1,2 -1,5 -2,7 2,1 -6,4 45 0,0 3433 1,6 5,0 --- ---
18.03.2018 2,8 1,3 -2,6 -3,3 -0,8 -5,4 51 0,0 2579 2,8 5,8 --- ---
17.03.2018 4,0 3,0 -3,5 -3,8 -1,3 -5,1 73 0,1 394 2,3 5,0 --- ---
16.03.2018 4,8 4,4 1,7 1,5 5,9 -1,3 89 13,5 468 1,2 3,4 --- ---
15.03.2018 4,9 1,6 4,7 4,2 9,3 -2,1 72 0,0 2702 1,1 3,4 --- ---
14.03.2018 5,4 5,4 4,3 4,0 7,9 0,1 78 0,4 1316 0,7 2,5 --- ---
13.03.2018 5,5 6,0 6,9 7,3 9,2 3,6 82 3,4 739 1,3 3,1 --- ---
12.03.2018 5,0 6,0 9,3 10,0 13,4 8,0 84 4,3 881 0,7 2,4 --- ---
11.03.2018 3,9 5,3 12,3 12,5 17,1 8,7 74 0,0 2016 1,0 3,1 --- ---
10.03.2018 2,3 3,2 9,5 9,6 15,0 4,8 82 2,5 1814 1,4 3,9 --- ---
09.03.2018 1,2 1,3 4,2 4,4 8,7 0,8 81 0,1 1811 1,2 3,1 --- ---
08.03.2018 0,7 0,5 4,6 5,1 8,5 2,5 78 7,7 1439 1,5 3,9 --- ---
07.03.2018 0,5 0,0 4,6 4,5 10,6 -0,2 80 0,0 1843 0,8 3,5 --- ---
06.03.2018 0,5 0,0 2,1 2,0 9,6 -3,7 82 0,0 1727 0,2 1,0 --- ---
05.03.2018 0,5 0,0 5,0 5,6 11,4 -0,8 76 0,3 1957 0,8 2,8 --- ---
04.03.2018 0,5 -0,1 0,4 0,7 7,1 -4,7 82 0,1 1178 0,6 3,0 --- ---
03.03.2018 0,6 -0,1 -3,3 -3,9 -1,8 -6,2 65 0,2 679 1,0 2,3 --- ---
02.03.2018 0,6 -0,1 -4,9 -5,9 -1,2 -10,0 59 0,0 2185 1,5 4,5 --- ---
01.03.2018 0,7 -0,1 -5,6 -6,5 -2,0 -9,7 54 0,0 2296 2,1 4,4 --- ---
28.02.2018 0,8 -0,1 -8,8 -9,7 -7,1 -12,0 71 0,0 1555 1,4 3,6 --- ---
27.02.2018 0,8 0,0 -6,1 -7,5 -2,9 -11,4 66 0,0 2203 1,1 3,7 --- ---
26.02.2018 0,8 0,0 -4,1 -5,4 -2,9 -8,1 75 0,6 1735 1,9 5,9 --- ---
25.02.2018 0,9 0,0 -4,1 -5,0 -1,6 -8,0 55 0,0 1938 1,7 4,4 --- ---
24.02.2018 1,0 0,1 -3,2 -3,2 0,7 -7,2 56 0,0 1331 1,4 4,8 --- ---
23.02.2018 1,2 0,4 -1,6 -1,7 1,3 -4,3 58 0,0 2076 1,6 4,8 --- ---
22.02.2018 1,4 0,6 -1,4 -0,8 1,9 -3,4 65 0,0 1268 1,5 4,2 --- ---
21.02.2018 1,5 0,9 0,2 0,0 3,1 -3,1 69 0,0 1763 1,2 3,5 --- ---
20.02.2018 1,5 -0,2 -0,3 -0,7 4,7 -4,7 79 0,0 1281 0,6 3,6 --- ---
19.02.2018 1,5 0,8 -0,8 -0,5 3,3 -3,9 80 0,0 1191 0,5 2,3 --- ---
18.02.2018 1,5 0,7 -0,7 -0,9 5,6 -5,8 81 0,0 1729 0,4 2,4 --- ---
17.02.2018 1,7 0,9 -1,2 -1,1 2,9 -4,3 88 0,0 853 0,4 2,5 --- ---
16.02.2018 1,6 1,0 1,3 1,5 7,2 -3,0 84 0,0 1429 0,7 2,5 --- ---
15.02.2018 1,6 0,7 -0,4 0,3 1,5 -2,2 77 0,9 267 1,5 4,0 --- ---
14.02.2018 1,8 0,9 -2,4 -2,5 4,4 -8,7 71 0,0 1762 0,6 3,0 --- ---
13.02.2018 2,1 1,4 -1,3 -0,9 4,4 -5,0 77 0,0 1724 0,8 3,2 --- ---
12.02.2018 2,2 1,6 -0,5 0,1 4,0 -3,4 89 1,7 692 0,6 2,4 --- ---
11.02.2018 2,1 -0,5 0,5 1,0 2,0 -0,8 88 0,7 620 1,8 5,5 --- ---
10.02.2018 1,9 1,0 -0,3 0,1 2,2 -2,8 89 0,0 477 1,0 2,2 --- ---
09.02.2018 2,2 -0,4 -3,0 -3,3 0,4 -8,2 88 0,0 630 0,9 2,6 --- ---
08.02.2018 2,6 1,6 -3,0 -3,3 0,2 -6,8 85 0,0 704 0,3 1,9 --- ---
07.02.2018 2,9 2,1 -0,5 -1,1 1,9 -3,3 76 0,0 1169 1,0 2,7 --- ---
06.02.2018 3,2 1,8 -2,3 -2,9 0,9 -6,8 77 0,0 743 0,7 2,1 --- ---
05.02.2018 3,8 2,5 -2,4 -2,8 0,4 -5,9 81 0,0 251 0,8 2,5 --- ---
04.02.2018 4,3 3,5 -0,4 -1,2 0,8 -4,0 87 1,7 16 0,8 2,1 --- ---
03.02.2018 4,4 3,9 1,8 2,3 3,6 0,8 74 0,4 548 0,6 2,0 --- ---
02.02.2018 4,6 3,9 1,4 1,8 3,6 -0,2 89 0,0 523 1,3 3,3 --- ---
01.02.2018 5,1 4,6 2,1 2,6 4,8 -0,1 80 1,5 815 1,2 3,7 --- ---
31.01.2018 5,1 4,8 5,1 5,8 8,5 0,2 88 3,8 322 2,0 4,1 --- ---
30.01.2018 5,6 5,3 3,1 4,0 7,6 -0,7 71 0,0 826 0,8 2,6 --- ---
29.01.2018 5,5 5,8 8,3 9,0 10,9 6,0 75 2,6 539 1,7 4,5 --- ---
28.01.2018 5,1 5,0 5,9 6,4 8,8 4,3 81 0,0 433 1,5 4,0 --- ---
27.01.2018 5,1 4,9 4,0 3,8 6,4 2,4 93 0,0 832 0,9 3,5 --- ---
26.01.2018 5,4 5,5 5,1 5,4 8,0 1,6 94 3,4 486 0,2 1,5 --- ---
25.01.2018 5,0 5,4 7,7 8,3 9,9 6,3 88 8,4 271 1,1 4,1 --- ---
24.01.2018 4,1 4,4 7,7 8,6 10,5 6,3 86 0,0 265 2,1 5,6 --- ---
23.01.2018 3,5 3,4 4,7 5,6 7,2 4,1 85 1,1 460 1,0 2,9 --- ---
22.01.2018 3,1 2,5 1,7 2,1 5,5 0,3 94 2,6 258 1,0 3,3 --- ---
21.01.2018 3,2 -9,6 0,7 0,8 2,8 0,1 95 6,3 155 0,4 1,4 --- ---
20.01.2018 3,4 2,1 0,7 1,0 2,8 -0,4 92 3,7 499 0,6 2,1 --- ---
19.01.2018 3,5 0,7 0,7 1,2 4,0 -1,0 88 2,4 460 0,5 2,4 --- ---
18.01.2018 3,6 2,6 1,9 3,0 8,5 -0,1 81 3,1 470 2,4 9,1 --- ---
17.01.2018 3,9 2,9 0,4 1,2 2,9 -0,2 86 8,0 508 1,3 3,7 --- ---
16.01.2018 4,1 3,6 2,6 3,5 5,8 0,9 84 9,2 309 1,8 4,8 --- ---
15.01.2018 4,1 3,1 0,7 1,5 4,5 -2,7 79 0,7 266 1,6 5,6 --- ---
14.01.2018 4,7 4,0 0,4 0,7 2,8 -2,6 69 0,0 401 1,1 2,5 --- ---
13.01.2018 5,0 4,0 3,2 3,4 4,5 0,8 83 0,0 176 0,8 2,2 --- ---
12.01.2018 4,9 0,3 4,2 4,4 5,4 3,2 94 0,0 239 0,5 1,3 --- ---
11.01.2018 4,5 3,9 3,9 4,0 7,7 0,4 96 0,3 509 0,2 1,2 --- ---
10.01.2018 4,5 4,0 2,6 3,4 8,5 0,9 93 0,2 377 0,4 2,4 --- ---
09.01.2018 4,6 0,2 2,7 3,3 5,0 1,5 85 0,7 350 0,8 2,6 --- ---
08.01.2018 4,8 2,8 1,8 1,7 3,0 0,7 82 0,0 617 1,4 3,1 --- ---
07.01.2018 5,2 0,0 2,3 2,5 4,8 1,5 85 0,5 164 1,9 4,4 --- ---
06.01.2018 5,3 4,8 3,5 4,3 6,8 0,7 93 0,0 333 0,5 2,6 --- ---
05.01.2018 5,5 5,3 5,8 7,3 9,7 5,0 73 0,0 358 1,6 4,5 --- ---
04.01.2018 5,5 5,1 5,1 6,2 9,3 5,0 84 2,9 208 1,6 4,5 --- ---
03.01.2018 5,5 5,2 4,8 5,9 7,5 4,1 82 14,3 334 2,7 4,9 --- ---
02.01.2018 5,6 5,0 3,4 3,9 5,9 2,2 89 5,5 314 1,0 3,3 --- ---
01.01.2018 5,8 5,8 5,5 6,6 11,4 3,8 76 6,0 345 2,0 5,3 --- ---

Mittelwerte (Temperaturen, Strahlung, rel. Feuchte, Wind), Summe (Regen) für 2018
13,1 13,2 13,3 12,3 70 290 2.722 0,7

Landesbetrieb Landwirtschaft Hessen 2009

      Werte bis 5 Uhr SommerzeitCSV-Datei: Harleshausen18.csvDiagramm: Harleshausen